Rechercher aéroport 
image banner adimage banner adimage banner ad
image banner ad

PN74 - Hilltop

Situé à Troy, United States

ICAO - PN74, IATA -

Données fournies par Airmate  

Information générale

Coordonnées: N41°46'55" W76°48'23"
Élévation : 1370 feet MSL.
Variation magnétique : -12° East
Voir autres Aéroports à Pennsylvania

Données opérationnelles

Special qualification required
Heure actuelle UTC:
Heure actuelle locale:
Météo à : KELM - Elmira/Corning Rgnl ( 43 km )
METAR: KELM 150453Z AUTO 29004KT 10SM CLR 13/12 A2980 RMK AO2 SLP087 T01280117 402610128
TAF: KELM 142333Z 1500/1524 29009KT P6SM SCT040 FM150800 30003KT 6SM BR BKN015 TEMPO 1510/1513 BKN007 FM151600 31008G15KT P6SM -SHRA BKN027 FM152200 34010KT P6SM SCT040
Voir NOTAMs / SUP AIP / TFR affectant cet aéroport [VIEW]
Fréquences de communication: [VIEW]

Pistes:

Coordonnées de l'aéroport

Adresse: Troy United States

Vue satellite de PN74